Time;durP1;ratioP1;P1;durP2;ratioP2;P2;SDS_P1;SDS_P2;PMS_P1;PMS_P2;Temp;Humidity;BMP_temperature;BMP_pressure;BME280_temperature;BME280_humidity;BME280_pressure;Samples;Min_cycle;Max_cycle;Signal;HPM_P1;HPM_P2
2022/03/05 00:00:54;;;;;;;14.00;10.35;;;;;;;8.14;100.00;99093.45;1713746;83;21902;-72
2022/03/05 00:03:25;;;;;;;12.43;9.73;;;;;;;7.93;100.00;99096.50;1707684;83;22403;-60
2022/03/05 00:05:54;;;;;;;13.30;10.53;;;;;;;7.85;100.00;99094.08;1711366;82;21084;-63
2022/03/05 00:08:23;;;;;;;12.60;9.95;;;;;;;7.76;100.00;99092.63;1708827;83;21091;-60
2022/03/05 00:10:51;;;;;;;13.72;11.18;;;;;;;8.06;100.00;99093.14;1710888;83;21047;-64
2022/03/05 00:13:20;;;;;;;13.25;10.80;;;;;;;8.25;100.00;99097.58;1711484;83;21102;-60
2022/03/05 00:15:48;;;;;;;12.37;10.03;;;;;;;8.40;100.00;99101.84;1711020;83;21555;-72
2022/03/05 00:18:15;;;;;;;11.80;9.78;;;;;;;8.55;100.00;99091.28;1710751;83;21130;-60
2022/03/05 00:20:45;;;;;;;11.28;9.63;;;;;;;8.33;100.00;99097.89;1710820;83;21071;-60
2022/03/05 00:23:14;;;;;;;13.08;11.15;;;;;;;8.31;100.00;99093.41;1708338;83;21108;-60
2022/03/05 00:25:42;;;;;;;11.88;10.05;;;;;;;8.28;100.00;99095.09;1707054;83;21218;-62
2022/03/05 00:28:10;;;;;;;12.20;9.53;;;;;;;8.17;100.00;99095.67;1711087;82;21671;-59
2022/03/05 00:30:37;;;;;;;12.55;9.95;;;;;;;8.26;100.00;99096.61;1711330;83;21080;-60
2022/03/05 00:33:05;;;;;;;13.15;10.08;;;;;;;8.21;100.00;99097.67;1692748;83;20969;-63
2022/03/05 00:35:33;;;;;;;11.38;9.93;;;;;;;7.97;100.00;99100.30;1701566;83;21078;-60
2022/03/05 00:38:01;;;;;;;10.85;9.18;;;;;;;7.98;100.00;99101.89;1698894;82;21347;-65
2022/03/05 00:40:29;;;;;;;12.25;10.70;;;;;;;8.01;100.00;99106.70;1710284;83;22480;-60
2022/03/05 00:42:56;;;;;;;12.07;9.58;;;;;;;8.10;100.00;99106.02;1708391;83;21511;-71
2022/03/05 00:45:23;;;;;;;11.95;9.90;;;;;;;7.97;100.00;99105.49;1711253;82;21586;-60
2022/03/05 00:47:51;;;;;;;12.53;9.78;;;;;;;8.00;100.00;99102.52;1711216;82;21005;-72
2022/03/05 00:50:18;;;;;;;11.30;9.20;;;;;;;8.14;100.00;99107.73;1711119;82;21229;-60
2022/03/05 00:52:46;;;;;;;10.38;8.80;;;;;;;8.19;100.00;99102.78;1711876;82;21082;-60
2022/03/05 00:55:14;;;;;;;12.28;9.78;;;;;;;8.05;100.00;99110.51;1710970;82;21310;-61
2022/03/05 00:57:41;;;;;;;13.20;10.30;;;;;;;8.08;100.00;99109.83;1711664;83;21159;-59
2022/03/05 01:00:10;;;;;;;11.75;9.18;;;;;;;8.15;100.00;99117.94;1710885;83;21092;-61
2022/03/05 01:02:41;;;;;;;11.00;8.90;;;;;;;8.09;100.00;99110.92;1710915;83;21581;-62
2022/03/05 01:05:10;;;;;;;11.57;10.28;;;;;;;8.05;100.00;99117.50;1697849;82;20992;-62
2022/03/05 01:07:37;;;;;;;11.40;9.85;;;;;;;8.07;100.00;99125.08;1700928;83;22073;-60
2022/03/05 01:10:05;;;;;;;11.57;10.03;;;;;;;8.27;100.00;99115.58;1694513;83;21518;-72
2022/03/05 01:12:35;;;;;;;12.88;10.00;;;;;;;8.18;100.00;99118.03;1703911;83;21147;-60
2022/03/05 01:15:04;;;;;;;11.70;9.50;;;;;;;8.40;100.00;99127.30;1706223;83;21377;-72
2022/03/05 01:17:33;;;;;;;12.68;10.25;;;;;;;7.91;100.00;99117.94;1706465;83;21128;-62
2022/03/05 01:20:00;;;;;;;13.53;11.20;;;;;;;8.07;100.00;99113.40;1706136;83;20969;-66
2022/03/05 01:22:27;;;;;;;12.15;10.38;;;;;;;8.05;100.00;99117.00;1706194;82;21107;-62
2022/03/05 01:24:54;;;;;;;11.57;10.15;;;;;;;8.01;100.00;99114.98;1706638;83;21021;-69
2022/03/05 01:27:22;;;;;;;10.85;9.25;;;;;;;8.15;100.00;99111.45;1706655;83;21874;-61
2022/03/05 01:29:50;;;;;;;11.55;10.10;;;;;;;8.22;100.00;99119.23;1706822;83;21649;-61
2022/03/05 01:32:17;;;;;;;12.47;10.28;;;;;;;8.19;100.00;99113.95;1705993;83;21004;-65
2022/03/05 01:34:44;;;;;;;11.63;9.30;;;;;;;8.00;100.00;99118.59;1706981;82;21125;-59
2022/03/05 01:37:11;;;;;;;12.15;9.80;;;;;;;8.00;100.00;99119.38;1706039;83;21064;-60
2022/03/05 01:39:41;;;;;;;12.00;10.00;;;;;;;8.03;100.00;99117.70;1703971;83;21151;-60
2022/03/05 01:42:08;;;;;;;11.83;9.73;;;;;;;8.11;100.00;99111.55;1706598;82;21000;-71
2022/03/05 01:44:35;;;;;;;10.93;9.20;;;;;;;8.29;100.00;99104.48;1706238;83;20961;-61
2022/03/05 01:47:04;;;;;;;11.35;9.18;;;;;;;8.07;100.00;99109.51;1695023;82;21201;-72
2022/03/05 01:49:33;;;;;;;11.88;9.03;;;;;;;7.91;100.00;99107.55;1695161;83;21624;-62
2022/03/05 01:52:00;;;;;;;11.95;9.95;;;;;;;7.60;100.00;99114.50;1706218;83;21216;-61
2022/03/05 01:54:28;;;;;;;11.53;9.20;;;;;;;7.67;100.00;99106.27;1698712;82;21055;-63
2022/03/05 01:56:55;;;;;;;11.10;8.88;;;;;;;7.94;100.00;99111.06;1705319;82;21486;-61
2022/03/05 01:59:22;;;;;;;9.38;8.28;;;;;;;8.05;100.00;99115.70;1706158;83;21503;-61
2022/03/05 02:01:49;;;;;;;11.28;8.43;;;;;;;8.01;100.00;99118.88;1706600;83;23028;-62
2022/03/05 02:04:17;;;;;;;11.60;9.48;;;;;;;8.01;100.00;99115.79;1706752;83;21271;-66
2022/03/05 02:06:44;;;;;;;12.00;9.60;;;;;;;7.87;100.00;99116.72;1706737;83;21171;-61
2022/03/05 02:09:11;;;;;;;10.85;8.88;;;;;;;7.97;100.00;99119.77;1710826;82;21035;-60
2022/03/05 02:11:39;;;;;;;10.23;8.20;;;;;;;7.94;100.00;99117.55;1711515;82;21124;-61
2022/03/05 02:14:07;;;;;;;10.18;8.33;;;;;;;7.82;100.00;99114.42;1711682;82;20965;-68
2022/03/05 02:16:37;;;;;;;12.25;9.73;;;;;;;7.89;100.00;99117.34;1705278;82;21206;-61
2022/03/05 02:19:05;;;;;;;14.50;10.20;;;;;;;7.81;100.00;99124.00;1704653;83;21020;-71
2022/03/05 02:21:36;;;;;;;11.83;9.15;;;;;;;8.19;100.00;99123.55;1711486;82;21025;-61
2022/03/05 02:24:03;;;;;;;12.35;9.95;;;;;;;7.80;100.00;99133.58;1700836;82;21148;-64
2022/03/05 02:26:30;;;;;;;12.03;9.53;;;;;;;7.80;100.00;99132.28;1711299;83;21031;-60
2022/03/05 02:28:58;;;;;;;11.53;9.53;;;;;;;7.78;100.00;99145.13;1711506;83;22588;-62
2022/03/05 02:31:25;;;;;;;12.45;9.70;;;;;;;7.85;100.00;99145.17;1711046;82;21016;-62
2022/03/05 02:33:53;;;;;;;12.95;10.05;;;;;;;7.87;100.00;99144.47;1711379;82;20996;-72
2022/03/05 02:36:21;;;;;;;14.30;10.70;;;;;;;7.89;100.00;99147.18;1711559;82;21081;-63
2022/03/05 02:38:51;;;;;;;14.90;10.75;;;;;;;7.82;100.00;99146.34;1710189;83;21084;-60
2022/03/05 02:41:19;;;;;;;13.40;10.88;;;;;;;7.87;100.00;99149.16;1711663;83;21225;-61
2022/03/05 02:43:47;;;;;;;14.60;11.48;;;;;;;7.87;100.00;99147.86;1711154;83;21522;-71
2022/03/05 02:46:14;;;;;;;12.63;10.78;;;;;;;8.10;100.00;99148.05;1711321;82;22525;-64
2022/03/05 02:48:42;;;;;;;15.80;11.90;;;;;;;8.05;100.00;99144.25;1711393;83;21087;-71
2022/03/05 02:51:10;;;;;;;15.75;11.90;;;;;;;8.25;100.00;99150.00;1700582;82;21065;-61
2022/03/05 02:53:38;;;;;;;15.18;11.70;;;;;;;8.19;100.00;99155.49;1711416;83;22294;-64
2022/03/05 02:56:07;;;;;;;15.32;11.65;;;;;;;7.99;100.00;99155.42;1711173;82;21004;-61
2022/03/05 02:58:34;;;;;;;17.27;12.98;;;;;;;7.98;100.00;99156.39;1711487;83;21036;-61
2022/03/05 03:01:01;;;;;;;16.25;12.25;;;;;;;7.82;100.00;99159.31;1710768;82;21143;-60
2022/03/05 03:03:29;;;;;;;17.82;12.90;;;;;;;7.76;100.00;99158.77;1711527;82;21648;-64
2022/03/05 03:05:57;;;;;;;17.27;12.65;;;;;;;7.41;100.00;99163.95;1709864;83;21277;-61
2022/03/05 03:08:24;;;;;;;18.05;13.08;;;;;;;7.42;100.00;99157.77;1706982;83;21013;-60
2022/03/05 03:10:51;;;;;;;17.45;13.28;;;;;;;7.54;100.00;99150.30;1706090;82;20969;-60
2022/03/05 03:13:19;;;;;;;18.05;12.78;;;;;;;7.61;100.00;99155.50;1707104;82;21538;-60
2022/03/05 03:15:46;;;;;;;20.45;14.45;;;;;;;7.41;100.00;99157.47;1705491;83;20970;-63
2022/03/05 03:18:17;;;;;;;18.80;14.55;;;;;;;7.53;100.00;99159.84;1706655;83;22308;-60
2022/03/05 03:20:44;;;;;;;18.98;14.35;;;;;;;7.61;100.00;99162.78;1705634;82;21177;-61
2022/03/05 03:23:12;;;;;;;23.10;16.15;;;;;;;7.61;100.00;99167.17;1706697;83;21152;-67
2022/03/05 03:25:39;;;;;;;23.67;16.60;;;;;;;7.73;100.00;99164.37;1705123;83;21084;-61
2022/03/05 03:28:07;;;;;;;21.55;15.83;;;;;;;7.45;100.00;99169.06;1706464;83;21100;-61
2022/03/05 03:30:35;;;;;;;20.25;15.48;;;;;;;7.50;100.00;99173.67;1706602;83;21170;-71
2022/03/05 03:33:02;;;;;;;20.15;14.47;;;;;;;7.43;100.00;99171.56;1706456;83;21637;-62
2022/03/05 03:35:30;;;;;;;21.15;15.63;;;;;;;7.38;100.00;99174.69;1699164;83;21527;-61
2022/03/05 03:37:58;;;;;;;20.85;15.53;;;;;;;7.33;100.00;99173.17;1706512;82;21032;-62
2022/03/05 03:40:25;;;;;;;19.52;14.68;;;;;;;7.46;100.00;99175.05;1706754;83;21077;-61
2022/03/05 03:42:52;;;;;;;21.73;14.98;;;;;;;7.46;100.00;99173.28;1706024;82;21228;-72
2022/03/05 03:45:20;;;;;;;22.13;14.98;;;;;;;7.50;100.00;99179.69;1705824;83;21154;-61
2022/03/05 03:47:49;;;;;;;21.95;16.27;;;;;;;7.68;100.00;99179.69;1706677;83;21067;-61
2022/03/05 03:50:17;;;;;;;22.73;16.95;;;;;;;7.69;100.00;99182.10;1706539;83;20984;-62
2022/03/05 03:52:44;;;;;;;21.17;15.45;;;;;;;7.71;100.00;99184.49;1706657;83;21593;-72
2022/03/05 03:55:15;;;;;;;22.37;15.83;;;;;;;7.72;100.00;99180.41;1705650;83;21270;-61
2022/03/05 03:57:42;;;;;;;24.07;17.42;;;;;;;8.01;94.39;99187.66;1704712;83;21108;-61
2022/03/05 04:00:17;;;;;;;23.47;16.15;;;;;;;8.01;94.39;99187.66;1706496;81;21012;31
2022/03/05 04:02:44;;;;;;;23.07;16.42;;;;;;;7.98;92.88;99196.61;1673478;84;20959;-72
2022/03/05 04:05:11;;;;;;;22.65;16.55;;;;;;;7.73;96.18;99191.11;1681126;85;21183;-64
2022/03/05 04:10:25;;;;;;;24.07;17.50;;;;;;;7.76;96.71;99200.28;1699716;83;20901;-69
2022/03/05 04:12:52;;;;;;;21.55;17.37;;;;;;;7.73;95.66;99209.77;1699904;82;21060;-71
2022/03/05 04:15:20;;;;;;;20.75;15.85;;;;;;;7.75;95.08;99212.95;1699855;82;21090;-62
2022/03/05 04:17:48;;;;;;;24.20;16.42;;;;;;;7.63;95.62;99217.87;1700229;82;21040;-63
2022/03/05 04:20:17;;;;;;;22.87;16.60;;;;;;;7.75;93.21;99216.84;1699711;83;20993;-61
2022/03/05 04:22:45;;;;;;;23.38;16.37;;;;;;;7.85;90.31;99226.89;1699675;84;21071;-61
2022/03/05 04:25:12;;;;;;;20.72;14.85;;;;;;;7.77;89.77;99228.64;1699485;84;21154;-65
2022/03/05 04:27:40;;;;;;;22.40;16.57;;;;;;;7.76;91.15;99228.31;1700744;82;21045;-63
2022/03/05 04:30:08;;;;;;;21.73;16.70;;;;;;;7.66;91.09;99229.66;1701217;82;21125;-63
2022/03/05 04:32:38;;;;;;;24.67;17.02;;;;;;;7.68;90.02;99232.86;1700853;82;20974;-70
2022/03/05 04:35:07;;;;;;;21.75;16.12;;;;;;;7.65;90.27;99235.35;1689427;84;21107;-71
2022/03/05 04:37:34;;;;;;;22.55;16.40;;;;;;;7.58;91.03;99241.45;1700335;82;21182;-63
2022/03/05 04:40:01;;;;;;;24.15;17.90;;;;;;;7.50;90.75;99243.22;1699637;84;21513;-63
2022/03/05 04:42:29;;;;;;;21.55;15.68;;;;;;;7.49;91.29;99246.78;1700114;83;21333;-70
2022/03/05 04:44:56;;;;;;;21.25;15.68;;;;;;;7.50;91.58;99246.28;1699774;82;21293;-63
2022/03/05 04:47:23;;;;;;;21.40;16.25;;;;;;;7.62;90.53;99244.80;1698744;84;21004;-63
2022/03/05 04:49:52;;;;;;;22.22;16.25;;;;;;;7.53;89.56;99250.60;1700384;82;21628;-62
2022/03/05 04:52:19;;;;;;;22.35;15.58;;;;;;;7.53;88.48;99258.38;1700108;82;21023;-63
2022/03/05 04:54:47;;;;;;;20.30;15.68;;;;;;;7.48;87.19;99267.22;1699738;82;21612;-64
2022/03/05 04:57:15;;;;;;;23.15;16.95;;;;;;;7.48;87.46;99269.81;1699717;84;22190;-64
2022/03/05 04:59:43;;;;;;;21.60;15.40;;;;;;;7.51;87.39;99274.64;1699066;84;21586;-65
2022/03/05 05:02:10;;;;;;;21.48;15.53;;;;;;;7.47;86.73;99273.41;1691464;84;21004;-62
2022/03/05 05:04:38;;;;;;;23.67;15.90;;;;;;;7.42;87.34;99274.94;1685694;84;21084;-72
2022/03/05 05:07:06;;;;;;;20.23;15.15;;;;;;;7.47;86.12;99276.00;1686553;84;21047;-62
2022/03/05 05:09:33;;;;;;;21.85;16.05;;;;;;;7.44;86.10;99277.66;1686571;83;21300;-63
2022/03/05 05:12:02;;;;;;;20.27;14.85;;;;;;;7.39;87.37;99287.80;1685761;84;21104;-66
2022/03/05 05:14:30;;;;;;;22.95;15.58;;;;;;;7.03;90.39;99291.73;1686268;84;21594;-67
2022/03/05 05:16:58;;;;;;;20.45;15.30;;;;;;;6.97;91.65;99295.03;1686734;84;22439;-62
2022/03/05 05:19:25;;;;;;;21.60;14.30;;;;;;;6.95;92.33;99291.34;1686110;84;21033;-72
2022/03/05 05:22:03;;;;;;;22.32;16.32;;;;;;;6.94;92.47;99300.11;1686925;84;21250;-62
2022/03/05 05:24:33;;;;;;;20.88;14.75;;;;;;;6.85;93.88;99296.01;1686127;84;21072;-62
2022/03/05 05:27:00;;;;;;;19.52;14.38;;;;;;;6.99;92.72;99299.06;1686472;84;21406;-62
2022/03/05 05:29:28;;;;;;;22.13;15.85;;;;;;;6.98;92.61;99295.37;1686329;84;21092;-72
2022/03/05 05:31:55;;;;;;;22.93;16.10;;;;;;;6.81;93.09;99300.75;1687524;84;21137;-62
2022/03/05 05:34:23;;;;;;;21.42;15.00;;;;;;;7.15;90.53;99302.41;1687030;84;21289;-72
2022/03/05 05:36:51;;;;;;;21.55;14.30;;;;;;;6.96;91.73;99309.78;1685792;84;21083;-65
2022/03/05 05:39:19;;;;;;;19.40;14.13;;;;;;;6.68;94.48;99302.40;1687637;84;20945;-62
2022/03/05 05:41:47;;;;;;;19.42;14.65;;;;;;;6.92;93.96;99309.84;1685806;84;21501;-62
2022/03/05 05:44:15;;;;;;;20.88;14.50;;;;;;;7.02;91.54;99313.45;1686876;84;21557;-67
2022/03/05 05:46:43;;;;;;;21.05;15.30;;;;;;;7.19;89.37;99314.01;1686523;84;22268;-62
2022/03/05 05:49:10;;;;;;;21.90;15.32;;;;;;;7.27;86.89;99309.53;1687087;83;21538;-63
2022/03/05 05:51:37;;;;;;;20.32;14.43;;;;;;;7.15;86.41;99313.58;1686761;84;20996;-65
2022/03/05 05:54:08;;;;;;;21.40;15.72;;;;;;;7.27;85.66;99316.48;1642267;86;21119;-65
2022/03/05 05:56:36;;;;;;;20.35;14.30;;;;;;;7.09;86.86;99313.52;1688199;84;21585;-65
2022/03/05 05:59:04;;;;;;;20.75;15.20;;;;;;;6.75;92.93;99318.82;1678131;84;21554;-62
2022/03/05 06:01:31;;;;;;;19.98;14.50;;;;;;;6.77;91.89;99313.75;1687172;84;21027;-73
2022/03/05 06:04:00;;;;;;;22.20;16.05;;;;;;;6.67;93.39;99322.81;1680138;84;21118;-74
2022/03/05 06:06:28;;;;;;;21.25;14.85;;;;;;;6.57;93.30;99325.17;1682076;83;21223;-63
2022/03/05 06:08:55;;;;;;;22.00;15.05;;;;;;;6.31;97.81;99329.50;1687917;84;21758;-62
2022/03/05 06:11:23;;;;;;;21.80;15.80;;;;;;;6.45;97.57;99333.08;1687759;84;21147;-63
2022/03/05 06:13:51;;;;;;;21.07;15.65;;;;;;;6.50;96.91;99342.40;1687496;84;21059;-61
2022/03/05 06:16:19;;;;;;;21.55;14.70;;;;;;;6.70;96.61;99337.47;1688455;84;21091;-63
2022/03/05 06:18:47;;;;;;;20.55;14.45;;;;;;;6.92;92.66;99342.22;1689059;84;21589;-64
2022/03/05 06:21:15;;;;;;;18.73;13.70;;;;;;;6.78;93.18;99338.69;1689004;84;21079;-63
2022/03/05 06:23:42;;;;;;;19.70;14.75;;;;;;;6.75;94.47;99340.34;1688142;84;21277;-74
2022/03/05 06:26:09;;;;;;;20.23;14.28;;;;;;;6.75;94.39;99339.55;1688511;84;21031;-67
2022/03/05 06:28:37;;;;;;;22.05;15.58;;;;;;;6.83;92.97;99344.63;1687395;84;21173;-63
2022/03/05 06:31:06;;;;;;;19.55;14.55;;;;;;;6.92;91.42;99346.11;1680574;83;21116;-63
2022/03/05 06:33:34;;;;;;;22.22;15.20;;;;;;;6.95;89.58;99352.23;1689295;84;21103;-64
2022/03/05 06:36:02;;;;;;;22.07;16.07;;;;;;;6.88;88.55;99350.05;1686601;84;21246;-74
2022/03/05 06:38:29;;;;;;;22.17;15.75;;;;;;;6.92;90.46;99357.77;1687693;84;22518;-63
2022/03/05 06:40:58;;;;;;;21.85;16.40;;;;;;;6.89;90.33;99352.14;1689390;84;21018;-63
2022/03/05 06:43:26;;;;;;;20.12;14.80;;;;;;;6.99;90.00;99357.36;1687169;84;21011;-61
2022/03/05 06:45:53;;;;;;;21.00;15.80;;;;;;;7.05;89.14;99357.14;1689441;84;21074;-72
2022/03/05 06:48:20;;;;;;;18.57;14.25;;;;;;;6.84;90.41;99359.17;1687876;84;22398;-64
2022/03/05 06:50:49;;;;;;;23.12;14.93;;;;;;;6.90;91.03;99362.84;1691426;83;21066;-64
2022/03/05 06:53:17;;;;;;;20.75;14.07;;;;;;;7.06;89.80;99371.69;1688261;83;21388;-64
2022/03/05 06:55:44;;;;;;;19.30;14.58;;;;;;;7.04;89.00;99370.56;1686793;83;21116;-63
2022/03/05 06:58:14;;;;;;;19.15;14.13;;;;;;;7.12;87.44;99371.44;1685606;84;21092;-72
2022/03/05 07:00:40;;;;;;;19.00;14.15;;;;;;;7.16;86.35;99368.33;1685734;83;21262;-65
2022/03/05 07:03:08;;;;;;;20.12;13.98;;;;;;;7.18;86.03;99372.82;1675100;83;21120;-65
2022/03/05 07:05:36;;;;;;;17.62;14.05;;;;;;;7.03;87.20;99370.26;1661005;84;21591;-63
2022/03/05 07:08:04;;;;;;;20.45;15.18;;;;;;;7.20;87.82;99367.48;1673040;83;21013;-66
2022/03/05 07:10:32;;;;;;;20.45;14.70;;;;;;;7.34;86.30;99369.70;1690282;83;21041;-74
2022/03/05 07:12:59;;;;;;;18.77;13.65;;;;;;;7.47;83.63;99373.73;1691342;83;21267;-66
2022/03/05 07:15:28;;;;;;;19.42;14.23;;;;;;;7.42;83.56;99379.45;1692391;83;21038;-62
2022/03/05 07:17:55;;;;;;;18.37;13.45;;;;;;;7.49;82.77;99378.23;1691499;83;21048;-72
2022/03/05 07:20:23;;;;;;;19.10;14.03;;;;;;;7.53;81.75;99381.56;1690809;83;21106;-63
2022/03/05 07:22:51;;;;;;;18.62;13.68;;;;;;;7.47;81.04;99374.53;1690371;82;21207;-65
2022/03/05 07:25:18;;;;;;;20.05;14.35;;;;;;;7.41;79.82;99376.55;1690436;83;21259;-66
2022/03/05 07:27:45;;;;;;;17.95;13.68;;;;;;;7.45;81.71;99373.10;1690297;83;21085;-69
2022/03/05 07:30:13;;;;;;;18.00;13.32;;;;;;;7.43;82.00;99377.69;1691876;82;21094;-72
2022/03/05 07:32:40;;;;;;;17.27;12.82;;;;;;;7.45;82.55;99383.47;1689541;83;21663;-69
2022/03/05 07:35:09;;;;;;;17.32;12.43;;;;;;;7.59;82.03;99380.03;1689497;83;21579;-65
2022/03/05 07:37:36;;;;;;;18.45;13.43;;;;;;;7.56;83.70;99379.89;1692083;83;21587;-64
2022/03/05 07:40:04;;;;;;;18.57;14.00;;;;;;;7.73;80.69;99381.77;1666214;84;21627;-61
2022/03/05 07:42:32;;;;;;;16.95;13.35;;;;;;;7.69;79.72;99386.19;1668069;84;21075;-65
2022/03/05 07:44:59;;;;;;;18.85;13.93;;;;;;;7.73;79.48;99390.84;1660929;84;21488;-64
2022/03/05 07:47:27;;;;;;;15.25;11.55;;;;;;;7.78;79.78;99392.88;1669765;84;22523;-61
2022/03/05 07:49:55;;;;;;;19.23;14.10;;;;;;;7.90;78.14;99399.67;1673279;84;21173;-62
2022/03/05 07:52:22;;;;;;;16.55;12.35;;;;;;;7.94;78.69;99395.20;1671523;84;21086;-75
2022/03/05 07:54:51;;;;;;;17.35;13.10;;;;;;;7.99;79.15;99399.36;1666191;85;21101;-61
2022/03/05 07:57:18;;;;;;;16.87;12.45;;;;;;;7.92;77.08;99402.89;1631989;85;22527;-63
2022/03/05 07:59:45;;;;;;;15.43;11.78;;;;;;;7.78;77.66;99404.55;1674532;85;22369;-61
2022/03/05 08:02:15;;;;;;;15.53;11.50;;;;;;;7.87;76.79;99407.81;1635919;85;21537;-72
2022/03/05 08:04:44;;;;;;;16.05;11.90;;;;;;;7.83;76.98;99402.70;1678293;83;21093;-62
2022/03/05 08:07:13;;;;;;;15.75;11.57;;;;;;;7.91;77.41;99407.75;1682106;83;21585;-76
2022/03/05 08:09:43;;;;;;;17.00;12.37;;;;;;;7.94;77.39;99404.30;1677610;84;21153;-65
2022/03/05 08:12:10;;;;;;;17.35;11.15;;;;;;;8.01;76.93;99405.66;1678912;83;21485;-65
2022/03/05 08:14:38;;;;;;;17.35;12.03;;;;;;;8.07;77.27;99409.28;1674222;84;21160;-64
2022/03/05 08:17:06;;;;;;;14.73;11.38;;;;;;;8.18;77.35;99413.96;1680386;83;21084;-75
2022/03/05 08:19:35;;;;;;;15.13;11.38;;;;;;;8.32;76.02;99413.08;1677490;83;20979;-64
2022/03/05 08:22:03;;;;;;;14.38;10.38;;;;;;;8.36;74.31;99410.41;1680692;83;21726;-69
2022/03/05 08:24:31;;;;;;;14.68;11.30;;;;;;;8.39;74.72;99407.97;1675973;84;21173;-72
2022/03/05 08:26:58;;;;;;;14.78;10.00;;;;;;;8.56;74.56;99412.36;1681774;83;21174;-63
2022/03/05 08:29:26;;;;;;;14.47;10.90;;;;;;;8.43;75.76;99412.59;1685394;83;21038;-65
2022/03/05 08:31:54;;;;;;;13.78;10.75;;;;;;;8.36;74.43;99411.70;1678794;83;21061;-60
2022/03/05 08:34:22;;;;;;;15.75;11.30;;;;;;;8.43;74.74;99413.89;1678096;83;21082;-68
2022/03/05 08:36:49;;;;;;;16.05;11.38;;;;;;;8.47;74.95;99419.00;1684385;83;22465;-61
2022/03/05 08:39:17;;;;;;;15.43;11.63;;;;;;;8.44;76.27;99420.67;1685278;83;21283;-64
2022/03/05 08:41:45;;;;;;;13.72;9.75;;;;;;;8.45;76.78;99422.80;1683740;83;21566;-61
2022/03/05 08:44:13;;;;;;;14.47;10.53;;;;;;;8.61;77.45;99420.41;1678388;83;21016;-62
2022/03/05 08:46:40;;;;;;;11.90;9.23;;;;;;;8.81;77.79;99424.41;1680736;83;21098;-62
2022/03/05 08:49:08;;;;;;;13.43;9.65;;;;;;;9.03;78.91;99421.23;1684823;83;21526;-61
2022/03/05 08:51:37;;;;;;;14.83;11.08;;;;;;;9.15;78.90;99416.57;1681853;83;21276;-65
2022/03/05 08:54:06;;;;;;;12.75;9.95;;;;;;;9.27;78.71;99416.81;1681502;84;21601;-64
2022/03/05 08:56:34;;;;;;;13.72;9.48;;;;;;;9.49;74.61;99421.39;1685461;83;20985;-63
2022/03/05 08:59:02;;;;;;;14.83;10.55;;;;;;;9.50;74.37;99424.28;1684558;83;21152;-62
2022/03/05 09:01:30;;;;;;;13.10;10.08;;;;;;;9.55;73.14;99427.12;1686372;83;21491;-61
2022/03/05 09:03:59;;;;;;;14.38;10.35;;;;;;;9.54;72.04;99433.80;1680487;83;21276;-68
2022/03/05 09:06:27;;;;;;;14.45;9.95;;;;;;;9.52;71.43;99444.92;1681512;83;22161;-77
2022/03/05 09:08:57;;;;;;;13.20;9.85;;;;;;;9.66;71.61;99442.16;1682024;83;21050;-62
2022/03/05 09:11:25;;;;;;;13.00;9.05;;;;;;;9.68;71.30;99447.95;1688271;83;21096;-62
2022/03/05 09:13:53;;;;;;;12.80;9.18;;;;;;;9.72;69.18;99448.36;1682020;83;21016;-62
2022/03/05 09:16:21;;;;;;;12.25;9.58;;;;;;;9.75;67.11;99452.67;1682853;83;22301;-77
2022/03/05 09:18:51;;;;;;;12.15;8.58;;;;;;;9.69;65.12;99459.16;1680839;83;21080;-63
2022/03/05 09:21:20;;;;;;;12.95;9.08;;;;;;;9.56;64.09;99465.14;1682706;83;21122;-62
2022/03/05 09:23:50;;;;;;;12.20;9.43;;;;;;;9.40;64.34;99459.78;1681918;83;21162;-64
2022/03/05 09:26:18;;;;;;;11.53;8.75;;;;;;;9.29;64.63;99468.14;1681253;83;21082;-63
2022/03/05 09:28:46;;;;;;;13.45;9.48;;;;;;;9.20;64.86;99470.09;1645534;86;21271;-67
2022/03/05 09:31:14;;;;;;;11.80;8.73;;;;;;;9.03;66.94;99478.41;1676502;84;21071;-63
2022/03/05 09:33:42;;;;;;;13.32;9.58;;;;;;;9.03;65.17;99473.22;1682300;83;21087;-63
2022/03/05 09:36:10;;;;;;;12.23;8.63;;;;;;;8.88;64.42;99483.73;1680719;83;20997;-61
2022/03/05 09:38:40;;;;;;;12.30;8.65;;;;;;;8.89;64.95;99477.53;1683484;83;21067;-74
2022/03/05 09:41:07;;;;;;;12.93;9.30;;;;;;;8.99;64.85;99487.89;1683714;83;21142;-68
2022/03/05 09:43:35;;;;;;;12.30;9.10;;;;;;;8.95;64.56;99484.57;1683468;83;21068;-62
2022/03/05 09:46:03;;;;;;;11.35;8.38;;;;;;;9.07;65.95;99484.84;1679139;83;21629;-75
2022/03/05 09:48:32;;;;;;;11.53;8.40;;;;;;;9.07;65.74;99491.34;1682057;83;21043;-75
2022/03/05 09:51:01;;;;;;;12.07;8.85;;;;;;;9.10;64.80;99486.55;1652117;85;21186;-63
2022/03/05 09:53:29;;;;;;;11.73;8.35;;;;;;;9.04;64.79;99490.41;1691330;83;21283;-62
2022/03/05 09:55:56;;;;;;;12.88;8.93;;;;;;;8.98;66.07;99492.80;1656778;84;21078;-62
2022/03/05 09:58:24;;;;;;;11.22;8.48;;;;;;;9.17;65.87;99495.70;1685749;83;21600;-75
2022/03/05 10:00:52;;;;;;;11.65;8.38;;;;;;;9.01;66.73;99499.39;1679428;83;22194;-63
2022/03/05 10:03:22;;;;;;;13.55;9.48;;;;;;;9.07;68.45;99499.13;1677628;83;21137;-61
2022/03/05 10:05:50;;;;;;;13.05;8.80;;;;;;;8.98;69.44;99504.49;1672263;84;21273;-62
2022/03/05 10:08:21;;;;;;;10.78;8.33;;;;;;;9.04;68.90;99508.61;1631590;86;21121;-65
2022/03/05 10:11:01;;;;;;;12.35;8.60;;;;;;;8.97;68.42;99508.56;1691656;83;21114;-65
2022/03/05 10:13:31;;;;;;;11.35;8.13;;;;;;;8.92;68.03;99513.54;1695737;82;21039;-64
2022/03/05 10:16:03;;;;;;;12.80;8.63;;;;;;;8.94;66.63;99501.14;1699155;82;21087;-61
2022/03/05 10:18:33;;;;;;;11.93;8.55;;;;;;;8.92;64.88;99514.34;1692987;83;20983;-61
2022/03/05 10:21:05;;;;;;;12.23;8.15;;;;;;;8.94;64.23;99512.84;1695963;82;21648;-62
2022/03/05 10:23:39;;;;;;;11.63;8.78;;;;;;;9.12;64.35;99514.45;1692716;82;28633;-63
2022/03/05 10:26:08;;;;;;;12.73;8.85;;;;;;;9.21;63.61;99515.13;1690096;83;20976;-76
2022/03/05 10:28:39;;;;;;;12.68;9.50;;;;;;;9.08;64.02;99519.73;1691614;83;21556;-62
2022/03/05 10:31:09;;;;;;;11.40;8.53;;;;;;;9.23;64.36;99517.81;1690927;82;21145;-62
2022/03/05 10:33:48;;;;;;;10.98;8.03;;;;;;;9.24;64.78;99525.11;1697375;83;21560;-65
2022/03/05 10:36:25;;;;;;;13.43;8.60;;;;;;;9.31;64.34;99522.05;1659468;84;21057;-71
2022/03/05 10:38:58;;;;;;;13.35;8.45;;;;;;;9.37;63.25;99521.30;1672458;85;21062;-65
2022/03/05 10:41:39;;;;;;;11.93;7.95;;;;;;;9.27;62.52;99528.64;1629233;86;21110;-74
2022/03/05 10:44:15;;;;;;;11.20;7.67;;;;;;;9.05;62.42;99533.61;1631755;86;21208;-72
2022/03/05 10:46:54;;;;;;;10.45;7.50;;;;;;;9.00;62.72;99532.88;1662503;84;21058;-64
2022/03/05 10:49:38;;;;;;;11.97;7.85;;;;;;;8.87;63.65;99534.91;1659168;86;22448;-66
2022/03/05 10:52:08;;;;;;;8.78;6.58;;;;;;;9.05;62.76;99527.11;1672756;85;21116;-66
2022/03/05 10:54:42;;;;;;;10.13;6.87;;;;;;;9.16;62.85;99536.97;1659796;84;21577;-69
2022/03/05 10:57:22;;;;;;;9.55;6.33;;;;;;;9.24;63.31;99537.64;1672627;84;21569;-65
2022/03/05 10:59:55;;;;;;;9.40;6.80;;;;;;;9.11;65.27;99545.35;1676380;84;21194;-65
2022/03/05 11:02:23;;;;;;;10.32;6.72;;;;;;;9.07;64.52;99547.23;1647869;85;21641;-66
2022/03/05 11:04:51;;;;;;;10.43;7.05;;;;;;;9.22;63.49;99538.82;1653307;85;21151;-62
2022/03/05 11:07:23;;;;;;;8.98;5.90;;;;;;;9.16;64.23;99552.58;1686309;84;21087;-62
2022/03/05 11:09:50;;;;;;;;;;;;;;;9.12;64.06;99546.15;1689378;84;21108;-60
2022/03/05 11:12:19;;;;;;;8.85;6.25;;;;;;;9.20;64.43;99550.70;1686589;84;20136;-61
2022/03/05 11:14:50;;;;;;;9.43;6.65;;;;;;;9.37;64.25;99549.91;1652896;86;21017;-61
2022/03/05 11:17:19;;;;;;;8.98;6.45;;;;;;;9.32;63.90;99547.09;1685946;84;20920;-64
2022/03/05 11:19:49;;;;;;;9.20;6.50;;;;;;;9.57;63.51;99547.89;1686822;84;21458;-63
2022/03/05 11:22:17;;;;;;;8.15;6.40;;;;;;;9.65;63.54;99555.03;1686616;83;21238;-65
2022/03/05 11:24:46;;;;;;;9.90;6.42;;;;;;;9.80;64.94;99548.38;1626435;86;21404;-63
2022/03/05 11:27:15;;;;;;;10.10;7.05;;;;;;;9.95;64.88;99556.84;1690887;83;21564;-60
2022/03/05 11:30:00;;;;;;;8.15;6.40;;;;;;;9.99;65.38;99552.84;1685532;84;21089;-63
2022/03/05 11:32:34;;;;;;;8.78;5.90;;;;;;;10.08;64.81;99552.19;1693684;83;21442;-61
2022/03/05 11:35:04;;;;;;;8.60;6.00;;;;;;;10.21;62.21;99563.12;1660583;84;21159;-61